createdAt,value
2023-01-31T00:01:33.133Z,14.48
2023-01-31T00:04:06.294Z,14.43
2023-01-31T00:06:38.690Z,14.18
2023-01-31T00:09:07.303Z,14.20
2023-01-31T00:11:35.105Z,12.93
2023-01-31T00:14:03.068Z,12.90
2023-01-31T00:16:30.129Z,12.90
2023-01-31T00:18:56.809Z,12.20
2023-01-31T00:23:53.452Z,12.48
2023-01-31T00:26:20.125Z,12.77
2023-01-31T00:28:48.293Z,12.15
2023-01-31T00:31:16.589Z,12.30
2023-01-31T00:33:45.834Z,11.60
2023-01-31T00:36:16.616Z,13.60
2023-01-31T00:38:47.907Z,13.73
2023-01-31T00:41:14.589Z,12.93
2023-01-31T00:43:41.242Z,12.80
2023-01-31T00:46:09.902Z,12.80
2023-01-31T00:48:37.170Z,13.40
2023-01-31T00:51:04.270Z,13.13
2023-01-31T00:53:31.156Z,10.50
2023-01-31T00:56:13.408Z,12.07
2023-01-31T00:58:41.389Z,12.32
2023-01-31T01:01:23.828Z,12.23
2023-01-31T01:03:51.967Z,12.10
2023-01-31T01:06:19.470Z,12.65
2023-01-31T01:08:46.405Z,13.00
2023-01-31T01:11:16.629Z,12.63
2023-01-31T01:13:44.146Z,12.90
2023-01-31T01:16:14.155Z,12.30
2023-01-31T01:18:41.928Z,14.38
2023-01-31T01:21:10.912Z,13.68
2023-01-31T01:23:38.897Z,11.88
2023-01-31T01:26:06.670Z,13.27
2023-01-31T01:28:35.215Z,13.77
2023-01-31T01:31:07.237Z,14.30
2023-01-31T01:33:34.586Z,14.48
2023-01-31T01:36:06.311Z,12.10
2023-01-31T01:38:37.000Z,11.43
2023-01-31T01:41:05.653Z,11.88
2023-01-31T01:43:44.254Z,10.73
2023-01-31T01:46:25.470Z,10.93
2023-01-31T01:48:58.201Z,11.57
2023-01-31T01:51:25.515Z,11.35
2023-01-31T01:53:57.187Z,11.38
2023-01-31T01:56:33.960Z,10.90
2023-01-31T01:59:12.585Z,11.98
2023-01-31T02:01:39.774Z,11.88
2023-01-31T02:04:15.470Z,10.18
2023-01-31T02:06:43.893Z,12.23
2023-01-31T02:09:34.346Z,10.45
2023-01-31T02:12:05.183Z,12.15
2023-01-31T02:14:31.923Z,12.65
2023-01-31T02:16:58.974Z,12.52
2023-01-31T02:22:27.356Z,11.10
2023-01-31T02:25:06.266Z,13.10
2023-01-31T02:28:01.576Z,11.75
2023-01-31T02:30:50.313Z,10.52
2023-01-31T02:33:42.261Z,11.73
2023-01-31T02:36:18.430Z,12.48
2023-01-31T02:39:19.787Z,10.35
2023-01-31T02:42:12.801Z,11.63
2023-01-31T02:45:17.012Z,11.18
2023-01-31T02:48:11.075Z,10.23
2023-01-31T02:51:14.886Z,11.57
2023-01-31T02:53:49.517Z,11.57
2023-01-31T02:56:31.451Z,12.23
2023-01-31T02:59:06.174Z,11.38
2023-01-31T03:01:56.788Z,11.27
2023-01-31T03:04:24.021Z,12.25
2023-01-31T03:07:02.313Z,11.75
2023-01-31T03:09:39.721Z,13.27
2023-01-31T03:12:31.973Z,10.68
2023-01-31T03:15:02.490Z,12.35
2023-01-31T03:17:46.661Z,10.45
2023-01-31T03:20:45.611Z,12.18
2023-01-31T03:23:19.210Z,11.73
2023-01-31T03:25:49.089Z,13.10
2023-01-31T03:28:20.809Z,12.20
2023-01-31T03:31:05.906Z,11.10
2023-01-31T03:33:40.853Z,13.10
2023-01-31T03:36:23.637Z,11.73
2023-01-31T03:39:08.781Z,14.23
2023-01-31T03:42:07.613Z,13.98
2023-01-31T03:45:02.401Z,12.30
2023-01-31T03:47:40.787Z,10.52
2023-01-31T03:50:24.328Z,10.82
2023-01-31T03:52:58.343Z,11.48
2023-01-31T03:55:34.639Z,11.25
2023-01-31T03:58:04.498Z,12.48
2023-01-31T04:00:35.655Z,11.88
2023-01-31T04:03:14.099Z,11.68
2023-01-31T04:05:41.118Z,13.10
2023-01-31T04:08:08.453Z,10.98
2023-01-31T04:10:35.367Z,12.18
2023-01-31T04:15:28.903Z,11.13
2023-01-31T04:17:55.566Z,12.05
2023-01-31T04:20:22.352Z,10.40
2023-01-31T04:25:15.608Z,8.77
2023-01-31T04:27:42.267Z,9.00
2023-01-31T04:32:36.711Z,10.13
2023-01-31T04:35:03.663Z,10.13
2023-01-31T04:37:30.559Z,10.32
2023-01-31T04:42:23.830Z,9.38
2023-01-31T04:44:50.456Z,11.18
2023-01-31T04:47:17.433Z,10.18
2023-01-31T04:49:44.546Z,9.60
2023-01-31T04:52:11.712Z,10.18
2023-01-31T04:54:38.382Z,9.45
2023-01-31T04:59:31.593Z,8.68
2023-01-31T05:04:26.237Z,10.63
2023-01-31T05:06:53.244Z,10.88
2023-01-31T05:09:20.297Z,10.23
2023-01-31T05:11:47.311Z,10.93
2023-01-31T05:14:14.862Z,10.52
2023-01-31T05:16:44.043Z,9.65
2023-01-31T05:19:10.756Z,10.40
2023-01-31T05:24:22.815Z,10.27
2023-01-31T05:26:51.528Z,10.57
2023-01-31T05:29:19.263Z,11.77
2023-01-31T05:31:46.162Z,11.00
2023-01-31T05:36:45.016Z,11.82
2023-01-31T05:39:11.709Z,11.68
2023-01-31T05:44:05.168Z,11.18
2023-01-31T05:46:32.346Z,10.45
2023-01-31T05:48:59.122Z,11.50
2023-01-31T05:53:52.457Z,10.05
2023-01-31T05:58:50.328Z,9.73
2023-01-31T06:01:23.047Z,10.40
2023-01-31T06:03:50.030Z,10.23
2023-01-31T06:06:16.971Z,10.43
2023-01-31T06:08:44.015Z,9.85
2023-01-31T06:11:12.225Z,9.63
2023-01-31T06:13:40.505Z,8.48
2023-01-31T06:16:07.370Z,9.20
2023-01-31T06:18:34.097Z,8.65
2023-01-31T06:23:27.685Z,9.27
2023-01-31T06:25:55.444Z,8.85
2023-01-31T06:28:23.179Z,8.35
2023-01-31T06:30:50.210Z,8.60
2023-01-31T06:33:17.550Z,8.38
2023-01-31T06:35:44.184Z,8.80
2023-01-31T06:38:13.086Z,11.35
2023-01-31T06:40:39.737Z,9.75
2023-01-31T06:45:33.147Z,8.20
2023-01-31T06:47:59.931Z,10.25
2023-01-31T06:52:53.314Z,10.80
2023-01-31T06:57:50.803Z,8.95
2023-01-31T07:00:18.702Z,9.60
2023-01-31T07:02:46.695Z,9.88
2023-01-31T07:05:13.645Z,10.38
2023-01-31T07:07:40.527Z,11.27
2023-01-31T07:10:07.890Z,11.77
2023-01-31T07:12:34.714Z,10.50
2023-01-31T07:15:01.602Z,11.20
2023-01-31T07:17:28.359Z,12.93
2023-01-31T07:22:21.665Z,11.27
2023-01-31T07:24:50.974Z,11.15
2023-01-31T07:27:18.214Z,12.30
2023-01-31T07:29:45.048Z,12.85
2023-01-31T07:32:12.072Z,12.27
2023-01-31T07:34:39.006Z,10.15
2023-01-31T07:37:05.737Z,11.13
2023-01-31T07:41:59.108Z,9.95
2023-01-31T07:46:54.634Z,10.80
2023-01-31T07:49:21.266Z,12.55
2023-01-31T07:54:14.922Z,9.55
2023-01-31T07:59:08.398Z,10.85
2023-01-31T08:04:23.411Z,10.13
2023-01-31T08:06:53.284Z,12.65
2023-01-31T08:09:20.096Z,12.25
2023-01-31T08:14:14.110Z,10.23
2023-01-31T08:16:40.976Z,13.07
2023-01-31T08:19:07.729Z,11.00
2023-01-31T08:24:01.241Z,10.32
2023-01-31T08:28:54.627Z,10.75
2023-01-31T08:33:53.301Z,11.48
2023-01-31T08:36:23.223Z,11.60
2023-01-31T08:38:50.874Z,13.85
2023-01-31T08:41:19.826Z,12.63
2023-01-31T08:43:57.876Z,9.10
2023-01-31T08:46:27.375Z,6.25
2023-01-31T08:48:54.539Z,5.70
2023-01-31T08:51:22.138Z,4.07
2023-01-31T08:53:49.317Z,4.68
2023-01-31T08:56:16.451Z,3.97
2023-01-31T08:58:44.676Z,3.72
2023-01-31T09:01:14.491Z,4.28
2023-01-31T09:03:43.865Z,4.40
2023-01-31T09:06:16.154Z,4.00
2023-01-31T09:10:54.661Z,4.47
2023-01-31T09:13:22.079Z,4.45
2023-01-31T09:15:58.950Z,4.55
2023-01-31T09:18:25.910Z,4.20
2023-01-31T09:20:53.075Z,5.25
2023-01-31T09:23:20.375Z,4.53
2023-01-31T09:25:56.566Z,5.28
2023-01-31T09:28:23.902Z,4.38
2023-01-31T09:30:53.442Z,4.45
2023-01-31T09:33:21.889Z,4.85
2023-01-31T09:35:58.968Z,4.30
2023-01-31T09:38:26.342Z,4.53
2023-01-31T09:40:53.864Z,4.50
2023-01-31T09:43:25.771Z,4.82
2023-01-31T09:45:56.201Z,4.70
2023-01-31T09:48:28.472Z,4.05
2023-01-31T09:50:58.711Z,5.20
2023-01-31T09:53:30.435Z,4.90
2023-01-31T09:56:24.622Z,4.72
2023-01-31T09:59:02.965Z,5.15
2023-01-31T10:01:43.751Z,4.80
2023-01-31T10:04:39.643Z,4.78
2023-01-31T10:07:17.585Z,4.60
2023-01-31T10:09:49.688Z,4.22
2023-01-31T10:12:25.193Z,5.22
2023-01-31T10:14:53.841Z,4.22
2023-01-31T10:17:29.260Z,4.57
2023-01-31T10:20:31.590Z,5.57
2023-01-31T10:23:18.671Z,5.22
2023-01-31T10:26:00.516Z,4.20
2023-01-31T10:28:49.228Z,4.55
2023-01-31T10:31:32.557Z,4.68
2023-01-31T10:34:21.524Z,5.25
2023-01-31T10:37:23.285Z,4.53
2023-01-31T10:39:54.746Z,4.75
2023-01-31T10:42:34.068Z,5.40
2023-01-31T10:45:12.052Z,4.85
2023-01-31T10:48:01.228Z,4.75
2023-01-31T10:50:39.157Z,5.28
2023-01-31T10:53:33.549Z,5.38
2023-01-31T10:56:00.432Z,5.35
2023-01-31T10:58:27.267Z,5.75
2023-01-31T11:03:21.819Z,6.63
2023-01-31T11:05:56.647Z,6.65
2023-01-31T11:08:48.131Z,5.53
2023-01-31T11:11:20.213Z,5.75
2023-01-31T11:13:59.646Z,5.78
2023-01-31T11:16:33.839Z,5.90
2023-01-31T11:19:04.435Z,5.47
2023-01-31T11:21:34.540Z,6.15
2023-01-31T11:24:07.719Z,5.07
2023-01-31T11:26:38.105Z,4.55
2023-01-31T11:29:17.946Z,4.80
2023-01-31T11:31:47.479Z,6.13
2023-01-31T11:34:23.584Z,6.13
2023-01-31T11:36:50.498Z,5.78
2023-01-31T11:39:37.921Z,5.63
2023-01-31T11:42:14.861Z,5.15
2023-01-31T11:44:59.526Z,6.18
2023-01-31T11:47:34.032Z,5.82
2023-01-31T11:50:02.443Z,6.43
2023-01-31T11:52:32.136Z,6.30
2023-01-31T11:55:09.607Z,5.65
2023-01-31T11:57:39.408Z,7.20
2023-01-31T12:00:28.166Z,6.47
2023-01-31T12:03:21.127Z,5.57
2023-01-31T12:05:52.127Z,6.38
2023-01-31T12:08:31.828Z,5.70
2023-01-31T12:10:59.414Z,5.63
2023-01-31T12:13:28.755Z,6.80
2023-01-31T12:16:05.925Z,6.47
2023-01-31T12:18:38.739Z,6.25
2023-01-31T12:21:27.971Z,6.40
2023-01-31T12:24:18.856Z,6.93
2023-01-31T12:26:50.421Z,6.30
2023-01-31T12:29:46.343Z,6.15
2023-01-31T12:32:52.358Z,6.82
2023-01-31T12:35:43.872Z,6.15
2023-01-31T12:38:25.977Z,6.20
2023-01-31T12:41:04.916Z,6.10
2023-01-31T12:43:58.707Z,5.90
2023-01-31T12:46:54.787Z,6.15
2023-01-31T12:49:58.805Z,6.30
2023-01-31T12:52:47.388Z,5.97
2023-01-31T12:55:23.252Z,6.57
2023-01-31T12:58:09.472Z,5.65
2023-01-31T13:01:03.589Z,6.35
2023-01-31T13:03:33.467Z,6.03
2023-01-31T13:06:07.490Z,7.45
2023-01-31T13:08:37.852Z,6.85
2023-01-31T13:11:20.908Z,7.63
2023-01-31T13:14:05.866Z,8.30
2023-01-31T13:16:38.700Z,9.10
2023-01-31T13:19:10.643Z,8.00
2023-01-31T13:21:43.354Z,7.80
2023-01-31T13:24:19.107Z,8.50
2023-01-31T13:26:52.028Z,9.90
2023-01-31T13:29:41.605Z,8.82
2023-01-31T13:32:20.953Z,8.88
2023-01-31T13:35:25.657Z,9.38
2023-01-31T13:37:59.208Z,8.45
2023-01-31T13:40:35.801Z,7.75
2023-01-31T13:43:22.782Z,7.13
2023-01-31T13:46:06.507Z,7.25
2023-01-31T13:48:37.964Z,6.63
2023-01-31T13:51:23.110Z,7.68
2023-01-31T13:53:55.837Z,7.43
2023-01-31T13:56:29.267Z,7.45
2023-01-31T13:58:57.318Z,7.60
2023-01-31T14:01:32.253Z,8.00
2023-01-31T14:04:11.685Z,7.30
2023-01-31T14:06:55.303Z,8.43
2023-01-31T14:09:50.670Z,8.85
2023-01-31T14:12:17.328Z,9.05
2023-01-31T14:14:54.730Z,8.60
2023-01-31T14:19:49.100Z,8.70
2023-01-31T14:22:19.878Z,9.80
2023-01-31T14:24:49.342Z,8.82
2023-01-31T14:27:27.345Z,9.13
2023-01-31T14:30:06.140Z,9.15
2023-01-31T14:32:49.923Z,10.13
2023-01-31T14:35:16.596Z,9.95
2023-01-31T14:38:04.850Z,11.10
2023-01-31T14:40:39.515Z,10.07
2023-01-31T14:43:28.020Z,11.32
2023-01-31T14:46:17.623Z,10.00
2023-01-31T14:48:59.438Z,11.85
2023-01-31T14:51:37.925Z,10.02
2023-01-31T14:54:44.045Z,10.52
2023-01-31T14:57:20.251Z,10.57
2023-01-31T15:00:16.533Z,9.88
2023-01-31T15:02:56.845Z,9.07
2023-01-31T15:05:32.518Z,10.38
2023-01-31T15:08:28.051Z,13.35
2023-01-31T15:11:13.902Z,10.45
2023-01-31T15:13:50.877Z,11.90
2023-01-31T15:16:25.820Z,12.63
2023-01-31T15:18:58.824Z,11.40
2023-01-31T15:21:42.773Z,11.02
2023-01-31T15:24:29.786Z,10.82
2023-01-31T15:26:59.162Z,11.10
2023-01-31T15:29:32.817Z,11.88
2023-01-31T15:32:11.917Z,10.52
2023-01-31T15:34:49.747Z,10.07
2023-01-31T15:37:25.229Z,9.05
2023-01-31T15:39:58.454Z,8.35
2023-01-31T15:42:28.067Z,8.90
2023-01-31T15:45:33.351Z,7.80
2023-01-31T15:48:03.140Z,7.63
2023-01-31T15:50:32.931Z,6.28
2023-01-31T15:53:04.720Z,6.47
2023-01-31T15:55:34.172Z,6.68
2023-01-31T15:58:03.086Z,6.03
2023-01-31T16:00:35.671Z,5.25
2023-01-31T16:03:05.315Z,6.05
2023-01-31T16:05:33.373Z,6.57
2023-01-31T16:08:02.045Z,6.03
2023-01-31T16:10:30.513Z,6.40
2023-01-31T16:12:58.915Z,5.28
2023-01-31T16:15:28.141Z,5.47
2023-01-31T16:17:57.110Z,6.65
2023-01-31T16:20:38.485Z,5.40
2023-01-31T16:23:06.304Z,6.15
2023-01-31T16:25:36.098Z,5.85
2023-01-31T16:28:11.033Z,5.00
2023-01-31T16:30:41.585Z,5.70
2023-01-31T16:33:21.478Z,7.78
2023-01-31T16:36:13.656Z,5.80
2023-01-31T16:38:43.194Z,5.57
2023-01-31T16:41:12.896Z,6.35
2023-01-31T16:43:43.675Z,6.32
2023-01-31T16:46:22.961Z,7.03
2023-01-31T16:49:07.200Z,6.43
2023-01-31T16:51:40.758Z,6.43
2023-01-31T16:54:21.239Z,6.30
2023-01-31T16:57:01.844Z,5.88
2023-01-31T16:59:34.638Z,6.75
2023-01-31T17:02:05.327Z,7.05
2023-01-31T17:04:32.438Z,6.68
2023-01-31T17:09:29.896Z,6.85
2023-01-31T17:14:23.876Z,6.80
2023-01-31T17:16:52.388Z,6.68
2023-01-31T17:19:19.109Z,5.95
2023-01-31T17:21:46.178Z,7.45
2023-01-31T17:24:18.564Z,6.78
2023-01-31T17:26:45.978Z,6.85
2023-01-31T17:29:12.763Z,6.63
2023-01-31T17:34:12.862Z,6.13
2023-01-31T17:36:39.567Z,6.03
2023-01-31T17:41:34.776Z,6.43
2023-01-31T17:44:06.447Z,6.10
2023-01-31T17:46:33.712Z,5.43
2023-01-31T17:49:00.397Z,5.25
2023-01-31T17:51:27.144Z,5.50
2023-01-31T17:56:20.796Z,5.47
2023-01-31T17:58:49.250Z,5.70
2023-01-31T18:01:16.053Z,5.88
2023-01-31T18:03:43.280Z,5.60
2023-01-31T18:06:10.723Z,5.03
2023-01-31T18:08:37.476Z,5.32
2023-01-31T18:13:38.161Z,5.40
2023-01-31T18:16:08.939Z,4.82
2023-01-31T18:18:36.983Z,5.75
2023-01-31T18:21:05.348Z,5.68
2023-01-31T18:23:32.520Z,6.88
2023-01-31T18:25:59.228Z,6.05
2023-01-31T18:30:52.648Z,5.55
2023-01-31T18:35:56.714Z,5.35
2023-01-31T18:38:26.278Z,5.03
2023-01-31T18:40:53.391Z,5.63
2023-01-31T18:43:21.118Z,5.43
2023-01-31T18:45:47.961Z,5.30
2023-01-31T18:50:41.497Z,5.35
2023-01-31T18:53:08.195Z,5.95
2023-01-31T18:58:01.487Z,5.30
2023-01-31T19:02:55.200Z,5.35
2023-01-31T19:05:23.484Z,5.05
2023-01-31T19:07:50.444Z,6.63
2023-01-31T19:12:43.947Z,6.88
2023-01-31T19:20:05.972Z,7.82
2023-01-31T19:22:32.700Z,8.27
2023-01-31T19:27:26.050Z,8.27
2023-01-31T19:32:19.486Z,6.88
2023-01-31T19:34:46.639Z,7.60
2023-01-31T19:37:13.299Z,7.75
2023-01-31T19:39:39.985Z,7.65
2023-01-31T19:44:34.156Z,7.93
2023-01-31T19:49:28.032Z,7.07
2023-01-31T19:51:54.740Z,6.88
2023-01-31T19:56:49.302Z,8.45
2023-01-31T20:01:42.591Z,8.13
2023-01-31T20:06:36.029Z,8.57
2023-01-31T20:09:04.841Z,8.27
2023-01-31T20:11:31.945Z,8.95
2023-01-31T20:13:58.698Z,9.00
2023-01-31T20:18:54.724Z,8.00
2023-01-31T20:21:22.039Z,7.93
2023-01-31T20:23:49.066Z,8.02
2023-01-31T20:26:17.214Z,8.68
2023-01-31T20:28:44.491Z,8.55
2023-01-31T20:31:13.199Z,8.30
2023-01-31T20:33:40.058Z,8.80
2023-01-31T20:38:33.688Z,8.38
2023-01-31T20:41:00.418Z,9.05
2023-01-31T20:46:01.029Z,7.40
2023-01-31T20:48:27.979Z,7.65
2023-01-31T20:50:58.660Z,7.70
2023-01-31T20:53:28.605Z,9.38
2023-01-31T20:56:00.811Z,9.27
2023-01-31T20:58:29.512Z,7.82
2023-01-31T21:00:59.749Z,9.00
2023-01-31T21:03:27.793Z,9.75
2023-01-31T21:05:56.776Z,9.77
2023-01-31T21:08:23.478Z,9.90
2023-01-31T21:10:51.464Z,9.63
2023-01-31T21:13:19.139Z,10.18
2023-01-31T21:15:54.905Z,9.15
2023-01-31T21:18:24.578Z,8.75
2023-01-31T21:20:51.980Z,9.07
2023-01-31T21:23:18.691Z,8.77
2023-01-31T21:25:46.140Z,9.27
2023-01-31T21:28:13.198Z,8.00
2023-01-31T21:30:40.266Z,8.75
2023-01-31T21:33:07.200Z,9.75
2023-01-31T21:35:34.006Z,8.20
2023-01-31T21:38:00.678Z,8.40
2023-01-31T21:40:27.516Z,7.25
2023-01-31T21:42:54.856Z,8.35
2023-01-31T21:45:39.444Z,7.63
2023-01-31T21:48:26.652Z,7.90
2023-01-31T21:50:53.720Z,8.43
2023-01-31T21:53:20.413Z,8.32
2023-01-31T21:58:14.251Z,7.95
2023-01-31T22:00:43.691Z,9.15
2023-01-31T22:03:10.973Z,8.82
2023-01-31T22:05:37.834Z,9.18
2023-01-31T22:08:04.997Z,7.40
2023-01-31T22:10:31.839Z,7.32
2023-01-31T22:12:58.662Z,7.18
2023-01-31T22:17:52.552Z,8.32
2023-01-31T22:20:19.485Z,8.02
2023-01-31T22:22:48.400Z,7.82
2023-01-31T22:25:15.271Z,9.27
2023-01-31T22:27:41.947Z,7.95
2023-01-31T22:32:54.588Z,6.93
2023-01-31T22:35:21.230Z,8.25
2023-01-31T22:40:14.600Z,8.77
2023-01-31T22:45:08.237Z,8.10
2023-01-31T22:47:34.900Z,8.90
2023-01-31T22:52:29.500Z,7.43
2023-01-31T22:54:56.174Z,7.82
2023-01-31T22:57:22.919Z,9.07
2023-01-31T23:02:16.142Z,8.90
2023-01-31T23:04:42.789Z,8.73
2023-01-31T23:09:37.248Z,9.75
2023-01-31T23:14:30.635Z,7.68
2023-01-31T23:17:16.112Z,8.77
2023-01-31T23:19:42.796Z,9.27
2023-01-31T23:24:36.086Z,8.80
2023-01-31T23:29:29.885Z,9.50
2023-01-31T23:34:23.394Z,9.00
2023-01-31T23:39:16.657Z,9.98
2023-01-31T23:44:10.105Z,9.80
2023-01-31T23:49:04.416Z,10.17
2023-01-31T23:51:33.117Z,11.70
2023-01-31T23:54:00.113Z,8.80
2023-01-31T23:56:26.767Z,9.23
